Millenium Air

Millenium Air Since 1998



 METAR AND TAF INFORMATION
METAR FOR UUWW
ADDS - METARS form results

(0443 UTC 18 April 2021)
Data provider http://aviationweather.gov/metar/data/
 
METAR text: UUWW 180430Z 07007MPS CAVOK 08/M05 Q1019 R06/000070 NOSIG
Conditions at: UUWW (MOSCOW/VNUKOVO , RU) observed 0430 UTC 18 April 2021
Temperature: 8.0°C (46°F)
Dewpoint: -5.0°C (23°F) [RH = 39%]
Pressure (altimeter): 30.09 inches Hg (1019.0 mb)
Winds: from the ENE (70 degrees) at 16 MPH (14 knots; 7.2 m/s)
Visibility: 6 or more miles (10+ km)
Ceiling: ceiling and visibility are OK
Clouds: unknown
Weather: no significant weather observed at this time

METAR text: UUWW 180400Z 07006MPS CAVOK 08/M05 Q1019 R06/000070 NOSIG
Conditions at: UUWW (MOSCOW/VNUKOVO , RU) observed 0400 UTC 18 April 2021
Temperature: 8.0°C (46°F)
Dewpoint: -5.0°C (23°F) [RH = 39%]
Pressure (altimeter): 30.09 inches Hg (1019.0 mb)
Winds: from the ENE (70 degrees) at 14 MPH (12 knots; 6.2 m/s)
Visibility: 6 or more miles (10+ km)
Ceiling: ceiling and visibility are OK
Clouds: unknown
Weather: no significant weather observed at this time

Forecast for: UUWW (MOSCOW/VNUKOVO , RU)
Text: TAF UUWW 180158Z 1803/1903 07007MPS 9999 SCT030 TX14/1811Z TN05/1803Z
Forecast period: 0300 UTC 18 April 2021 to 0300 UTC 19 April 2021
Forecast type: FROM: standard forecast or significant change
Winds: from the ENE (70 degrees) at 16 MPH (14 knots; 7.2 m/s)
Visibility: 6 or more miles (10+ km)
Ceiling: at least 12,000 feet AGL
Clouds: scattered clouds at 3000 feet AGL
Weather: no significant weather forecast for this period
Text: TEMPO 1809/1821 08009G16MPS -SHRA BKN020CB
Forecast period: 0900 to 2100 UTC 18 April 2021
Forecast type: TEMPORARY: The following changes expected for less than half the time period
Winds: from the E (80 degrees) at 20 MPH (17 knots; 8.7 m/s)
gusting to 36 MPH (31 knots; 15.9 m/s)
Visibility: missing
Ceiling: 2000 feet AGL
Clouds: broken clouds at 2000 feet AGL
Weather: -SHRA  (light rain showers)

 AIRPORT MAP

 RUNWAY INFORMATION
Runway 01 Runway length 10039 ft Runway width 148 ft
Runway elevation 633 ft Runway displaced threshold 0 ft Runway heading 14
Runway 19 Runway length 10039 ft Runway width 148 ft
Runway elevation 634 ft Runway displaced threshold 0 ft Runway heading 194
Runway 06 Runway length 9842 ft Runway width 197 ft
Runway elevation 637 ft Runway displaced threshold 0 ft Runway heading 68
Runway 24 Runway length 9842 ft Runway width 197 ft
Runway elevation 680 ft Runway displaced threshold 0 ft Runway heading 248

 AIRPORT FREQUENCIES
Type APP Name APP Frequency 122.3 MHZ
Type ATIS Name ATIS Frequency 125.875 MHZ
Type GND Name TAXIING Frequency 120.45 MHZ
Type RDR Name RADAR Frequency 126 MHZ
Type TWR Name TWR Frequency 118.3 MHZ

 AIRPORT NEAR NAVIGATION AIDS
Type NDB Name Vnukovo Frequency 290 KHZ
Type NDB Name Vnukovo Frequency 290 KHZ
Type NDB Name Vnukovo Frequency 468 KHZ
Type NDB Name Vnukovo Frequency 468 KHZ